Huffman, Alabama
Current Conditions -  °F | °C
As of 12:53 PM on Wednesday 26 Nov 2014 (Local Time) from KBHM Reporting Station
Few Clouds Few Clouds  
Wind Chill: 55°   Ceiling: Unl
Heat Index: 55°   Visibility: 10mi
Dew Point: 22°   Wind: 7mph
Humidity: 28%   Direction: 270°W
Pressure: 30.12"   Gusts: NA
Location:  33.6283°N, 86.6434°W
Report Text: KBHM 261853Z 27006KT 10SM FEW250 13/M06 A3012 RMK AO2 SLP200 T01281056
Loading
Personal Weather Stations






























Interactive Weather Map New forecast layout! Learn more

10-Day Weather Forecast

Advertisements
Track Severe Weather on mobile